Marcelino Escalada, Argentina
Current Conditions -  °F | °C
As of 6:00 PM on Monday 24 Nov 2014 (Local Time) from SUSO Reporting Station
Thunderstorm Thunderstorm  
Wind Chill: 77°   Ceiling: 700
Heat Index: 78°   Visibility: 1.8mi
Dew Point: 77°   Wind: 22mph
Humidity: 100%   Direction: 190°S
Pressure: 29.74"   Gusts: NA
Location:  30.58°S, 60.48°W
Report Text: SUSO 242100Z 19019KT 3000 TSRA OVC007 FEW030CB 25/25 Q1007
Loading
Personal Weather Stations






























Interactive Weather Map New forecast layout! Learn more

10-Day Weather Forecast

Advertisements
Track Severe Weather on mobile